Anna R — WDC6899 — position and weather

sailwx.info

Track history (hours):
 
Tides and Currents Weather Stations Pressure Air Temp Water Temp Dewpoint Dewpoint Depression Visibility Wind Speed Wind Dir Waves Ship Positions

Anna R

Owner: Boston LIne & Service Co., Inc., Boston, MA. More information available from US FCC via Universal Licensing System and Coast Guard Vessel Documentation Center.

Last reported at 2018-Jun-20 18:02 UTC. Time now 2018-Jun-21 08:45 UTC.
Position N 42°21' W 071°02'.

Length 13 m; draft 2 m.

Type: Port tender. MMSI: 367062890.

Date/timePositionNaut miles runAvg speedWind from/ knotsBaromVisibWave heightAir tempDewpointWater temp
2018-Jun-20 18:02N 42°21' W 071°02'0 0.0
2018-Jun-20 18:01N 42°21' W 071°02'0 0.0
2018-Jun-20 00:58N 42°21' W 071°02'0 0.0
2018-Jun-19 20:32N 42°21' W 071°02'0 0.8
2018-Jun-19 20:30N 42°21' W 071°02'3 6.3
2018-Jun-19 20:00N 42°20' W 070°58'0 0.0
2018-Jun-19 19:30N 42°20' W 070°58'2 4.6
2018-Jun-19 19:01N 42°21' W 071°01'1 0.5
2018-Jun-19 17:16N 42°21' W 071°02'1 3.0
2018-Jun-19 17:00N 42°21' W 071°02'1 0.0
2018-Jun-18 16:15N 42°21' W 071°02'0 0.0
2018-Jun-18 16:01N 42°21' W 071°02'0 0.0
2018-Jun-18 15:30N 42°21' W 071°02'0 0.0
2018-Jun-18 15:00N 42°21' W 071°02'0 0.0
2018-Jun-18 14:30N 42°21' W 071°02'0 0.0
2018-Jun-18 14:00N 42°21' W 071°02'0 0.0
2018-Jun-16 20:23N 42°21' W 071°02'3 8.1
2018-Jun-16 20:00N 42°20' W 070°58'3 0.9
2018-Jun-16 16:41N 42°21' W 071°02'1 5.0
2018-Jun-16 16:31N 42°21' W 071°01'2 3.6
2018-Jun-16 16:00N 42°20' W 070°59'0 0.0
2018-Jun-16 15:30N 42°20' W 070°59'0 0.0
2018-Jun-16 15:00N 42°20' W 070°58'0 0.1
2018-Jun-16 14:30N 42°20' W 070°59'3 0.2
2018-Jun-16 02:42N 42°21' W 071°02'2 8.6
2018-Jun-16 02:30N 42°20' W 070°60'1 2.5
2018-Jun-16 02:00N 42°21' W 070°58'0 0.0
2018-Jun-16 01:31N 42°21' W 070°58'0 0.3
2018-Jun-16 01:00N 42°21' W 070°58'3 6.2
2018-Jun-16 00:30N 42°21' W 071°02'0 0.0
2018-Jun-16 00:00N 42°21' W 071°02'0 0.0
2018-Jun-15 18:43N 42°21' W 071°02'0 0.5
2018-Jun-15 18:30N 42°21' W 071°02'2 3.5
2018-Jun-15 18:01N 42°22' W 071°03'1 2.8
2018-Jun-15 17:30N 42°23' W 071°04'0 0.0
2018-Jun-15 17:00N 42°23' W 071°04'0 0.1
2018-Jun-15 16:30N 42°23' W 071°04'0 0.1
2018-Jun-15 16:00N 42°23' W 071°04'0 0.0
2018-Jun-15 15:30N 42°23' W 071°04'0 0.0
2018-Jun-15 15:00N 42°23' W 071°04'1 1.3
2018-Jun-15 14:30N 42°23' W 071°03'3 5.0
2018-Jun-15 14:00N 42°21' W 071°01'1 0.2
2018-Jun-15 11:32N 42°21' W 071°02'0 0.0
2018-Jun-15 11:30N 42°21' W 071°02'0 0.0
2018-Jun-14 18:11N 42°21' W 071°02'1 4.8
2018-Jun-14 18:00N 42°21' W 071°02'2 3.0
2018-Jun-14 17:30N 42°23' W 071°03'1 0.3
2018-Jun-14 15:16N 42°23' W 071°04'0 0.7
2018-Jun-14 15:00N 42°23' W 071°04'0 0.1
2018-Jun-14 14:30N 42°23' W 071°04'1 2.4
2018-Jun-14 14:00N 42°22' W 071°03'2 3.9
2018-Jun-14 13:30N 42°21' W 071°02'0 0.0
2018-Jun-14 13:00N 42°21' W 071°02'0 0.0
2018-Jun-14 08:22N 42°21' W 071°02'2 5.1
2018-Jun-14 08:00N 42°22' W 071°03'2 3.7
2018-Jun-14 07:30N 42°21' W 071°01'3 5.1
2018-Jun-14 07:00N 42°20' W 070°58'0 0.0
2018-Jun-14 06:31N 42°20' W 070°58'0 0.1
2018-Jun-14 06:00N 42°20' W 070°58'0 0.0
2018-Jun-14 05:30N 42°20' W 070°58'0 0.1
2018-Jun-14 05:00N 42°20' W 070°58'0 0.1
2018-Jun-14 04:30N 42°20' W 070°58'0 0.7
2018-Jun-14 04:00N 42°20' W 070°58'4 7.4
2018-Jun-14 03:30N 42°22' W 071°03'1 2.3
2018-Jun-14 03:00N 42°23' W 071°03'1 1.7
2018-Jun-14 02:30N 42°22' W 071°03'  
2018-Jun-11 19:57N 42°21' W 071°02'4 8.5
2018-Jun-11 19:28N 42°18' W 070°58'3 5.9
2018-Jun-11 18:57N 42°15' W 070°58'0 0.0
2018-Jun-11 18:08N 42°15' W 070°58'1 6.0
2018-Jun-11 18:00N 42°15' W 070°57'4 7.8
2018-Jun-11 17:30N 42°19' W 070°59'  
Track history (hours):
 
Tides and Currents Weather Stations Pressure Air Temp Water Temp Dewpoint Dewpoint Depression Visibility Wind Speed Wind Dir Waves Ship Positions

Anna R

Owner: Boston LIne & Service Co., Inc., Boston, MA. More information available from US FCC via Universal Licensing System and Coast Guard Vessel Documentation Center.

Last reported at 2018-Jun-20 18:02 UTC. Time now 2018-Jun-21 08:45 UTC.
Position N 42°21' W 071°02'.

Length 13 m; draft 2 m.

Type: Port tender. MMSI: 367062890.

Date/timePositionNaut miles runAvg speedWind from/ knotsBaromVisibWave heightAir tempDewpointWater temp
2018-Jun-20 18:02N 42°21' W 071°02'0 0.0
2018-Jun-20 18:01N 42°21' W 071°02'0 0.0
2018-Jun-20 00:58N 42°21' W 071°02'0 0.0
2018-Jun-19 20:32N 42°21' W 071°02'0 0.8
2018-Jun-19 20:30N 42°21' W 071°02'3 6.3
2018-Jun-19 20:00N 42°20' W 070°58'0 0.0
2018-Jun-19 19:30N 42°20' W 070°58'2 4.6
2018-Jun-19 19:01N 42°21' W 071°01'1 0.5
2018-Jun-19 17:16N 42°21' W 071°02'1 3.0
2018-Jun-19 17:00N 42°21' W 071°02'1 0.0
2018-Jun-18 16:15N 42°21' W 071°02'0 0.0
2018-Jun-18 16:01N 42°21' W 071°02'0 0.0
2018-Jun-18 15:30N 42°21' W 071°02'0 0.0
2018-Jun-18 15:00N 42°21' W 071°02'0 0.0
2018-Jun-18 14:30N 42°21' W 071°02'0 0.0
2018-Jun-18 14:00N 42°21' W 071°02'0 0.0
2018-Jun-16 20:23N 42°21' W 071°02'3 8.1
2018-Jun-16 20:00N 42°20' W 070°58'3 0.9
2018-Jun-16 16:41N 42°21' W 071°02'1 5.0
2018-Jun-16 16:31N 42°21' W 071°01'2 3.6
2018-Jun-16 16:00N 42°20' W 070°59'0 0.0
2018-Jun-16 15:30N 42°20' W 070°59'0 0.0
2018-Jun-16 15:00N 42°20' W 070°58'0 0.1
2018-Jun-16 14:30N 42°20' W 070°59'3 0.2
2018-Jun-16 02:42N 42°21' W 071°02'2 8.6
2018-Jun-16 02:30N 42°20' W 070°60'1 2.5
2018-Jun-16 02:00N 42°21' W 070°58'0 0.0
2018-Jun-16 01:31N 42°21' W 070°58'0 0.3
2018-Jun-16 01:00N 42°21' W 070°58'3 6.2
2018-Jun-16 00:30N 42°21' W 071°02'0 0.0
2018-Jun-16 00:00N 42°21' W 071°02'0 0.0
2018-Jun-15 18:43N 42°21' W 071°02'0 0.5
2018-Jun-15 18:30N 42°21' W 071°02'2 3.5
2018-Jun-15 18:01N 42°22' W 071°03'1 2.8
2018-Jun-15 17:30N 42°23' W 071°04'0 0.0
2018-Jun-15 17:00N 42°23' W 071°04'0 0.1
2018-Jun-15 16:30N 42°23' W 071°04'0 0.1
2018-Jun-15 16:00N 42°23' W 071°04'0 0.0
2018-Jun-15 15:30N 42°23' W 071°04'0 0.0
2018-Jun-15 15:00N 42°23' W 071°04'1 1.3
2018-Jun-15 14:30N 42°23' W 071°03'3 5.0
2018-Jun-15 14:00N 42°21' W 071°01'1 0.2
2018-Jun-15 11:32N 42°21' W 071°02'0 0.0
2018-Jun-15 11:30N 42°21' W 071°02'0 0.0
2018-Jun-14 18:11N 42°21' W 071°02'1 4.8
2018-Jun-14 18:00N 42°21' W 071°02'2 3.0
2018-Jun-14 17:30N 42°23' W 071°03'1 0.3
2018-Jun-14 15:16N 42°23' W 071°04'0 0.7
2018-Jun-14 15:00N 42°23' W 071°04'0 0.1
2018-Jun-14 14:30N 42°23' W 071°04'1 2.4
2018-Jun-14 14:00N 42°22' W 071°03'2 3.9
2018-Jun-14 13:30N 42°21' W 071°02'0 0.0
2018-Jun-14 13:00N 42°21' W 071°02'0 0.0
2018-Jun-14 08:22N 42°21' W 071°02'2 5.1
2018-Jun-14 08:00N 42°22' W 071°03'2 3.7
2018-Jun-14 07:30N 42°21' W 071°01'3 5.1
2018-Jun-14 07:00N 42°20' W 070°58'0 0.0
2018-Jun-14 06:31N 42°20' W 070°58'0 0.1
2018-Jun-14 06:00N 42°20' W 070°58'0 0.0
2018-Jun-14 05:30N 42°20' W 070°58'0 0.1
2018-Jun-14 05:00N 42°20' W 070°58'0 0.1
2018-Jun-14 04:30N 42°20' W 070°58'0 0.7
2018-Jun-14 04:00N 42°20' W 070°58'4 7.4
2018-Jun-14 03:30N 42°22' W 071°03'1 2.3
2018-Jun-14 03:00N 42°23' W 071°03'1 1.7
2018-Jun-14 02:30N 42°22' W 071°03'  
2018-Jun-11 19:57N 42°21' W 071°02'4 8.5
2018-Jun-11 19:28N 42°18' W 070°58'3 5.9
2018-Jun-11 18:57N 42°15' W 070°58'0 0.0
2018-Jun-11 18:08N 42°15' W 070°58'1 6.0
2018-Jun-11 18:00N 42°15' W 070°57'4 7.8
2018-Jun-11 17:30N 42°19' W 070°59'  

Dump ship's entire track history